createdAt,value
2018-11-13T00:03:02.808Z,9.43
2018-11-13T00:07:56.280Z,9.43
2018-11-13T00:12:55.931Z,9.48
2018-11-13T00:17:49.313Z,9.57
2018-11-13T00:22:43.286Z,9.56
2018-11-13T00:27:36.851Z,9.56
2018-11-13T00:32:30.184Z,9.61
2018-11-13T00:37:23.655Z,9.74
2018-11-13T00:42:17.150Z,9.77
2018-11-13T00:47:10.479Z,9.61
2018-11-13T00:52:03.999Z,9.60
2018-11-13T00:56:57.478Z,9.75
2018-11-13T01:01:50.871Z,9.45
2018-11-13T01:06:44.395Z,9.41
2018-11-13T01:11:37.838Z,9.50
2018-11-13T01:16:31.243Z,9.64
2018-11-13T01:21:24.636Z,9.76
2018-11-13T01:26:18.040Z,9.65
2018-11-13T01:31:11.564Z,9.75
2018-11-13T01:36:04.988Z,9.62
2018-11-13T01:40:58.515Z,9.79
2018-11-13T01:45:52.034Z,9.91
2018-11-13T01:50:45.442Z,9.90
2018-11-13T01:55:39.137Z,10.20
2018-11-13T02:00:32.531Z,10.19
2018-11-13T02:05:26.338Z,10.23
2018-11-13T02:10:20.113Z,10.29
2018-11-13T02:15:13.655Z,10.26
2018-11-13T02:20:10.302Z,10.33
2018-11-13T02:25:03.800Z,10.28
2018-11-13T02:29:57.274Z,10.47
2018-11-13T02:34:50.686Z,10.60
2018-11-13T02:39:44.053Z,10.51
2018-11-13T02:44:37.462Z,10.27
2018-11-13T02:49:30.940Z,10.20
2018-11-13T02:54:24.331Z,10.19
2018-11-13T02:59:17.837Z,10.21
2018-11-13T03:04:11.331Z,10.18
2018-11-13T03:09:07.058Z,10.17
2018-11-13T03:14:00.530Z,10.35
2018-11-13T03:18:53.907Z,10.18
2018-11-13T03:23:47.397Z,10.26
2018-11-13T03:28:40.880Z,10.30
2018-11-13T03:33:34.323Z,10.18
2018-11-13T03:38:27.759Z,10.15
2018-11-13T03:43:21.156Z,9.95
2018-11-13T03:48:14.604Z,9.97
2018-11-13T03:53:08.002Z,10.15
2018-11-13T03:58:01.547Z,10.21
2018-11-13T04:02:55.004Z,10.27
2018-11-13T04:07:51.484Z,10.22
2018-11-13T04:12:45.204Z,10.32
2018-11-13T04:17:39.106Z,10.48
2018-11-13T04:22:32.507Z,10.60
2018-11-13T04:27:25.926Z,10.69
2018-11-13T04:32:19.614Z,10.63
2018-11-13T04:37:13.098Z,10.38
2018-11-13T04:42:07.114Z,10.10
2018-11-13T04:47:00.543Z,10.02
2018-11-13T04:51:53.911Z,9.88
2018-11-13T04:56:47.326Z,9.96
2018-11-13T05:01:40.742Z,9.95
2018-11-13T05:06:34.221Z,9.82
2018-11-13T05:11:27.618Z,9.54
2018-11-13T05:16:21.010Z,9.48
2018-11-13T05:21:14.586Z,9.54
2018-11-13T05:26:07.989Z,9.65
2018-11-13T05:31:01.389Z,9.73
2018-11-13T05:35:55.765Z,9.72
2018-11-13T05:40:49.357Z,9.65
2018-11-13T05:45:42.725Z,9.73
2018-11-13T05:50:36.246Z,9.70
2018-11-13T05:55:29.646Z,9.90
2018-11-13T06:00:28.388Z,9.89
2018-11-13T06:05:21.930Z,9.98
2018-11-13T06:10:15.307Z,9.95
2018-11-13T06:15:09.376Z,9.93
2018-11-13T06:20:03.346Z,10.13
2018-11-13T06:24:56.758Z,10.14
2018-11-13T06:29:50.451Z,10.16
2018-11-13T06:34:44.168Z,10.23
2018-11-13T06:39:37.661Z,10.20
2018-11-13T06:44:31.195Z,10.17
2018-11-13T06:49:25.094Z,10.18
2018-11-13T06:54:29.478Z,10.26
2018-11-13T06:59:23.011Z,10.23
2018-11-13T07:04:17.487Z,10.25
2018-11-13T07:09:11.115Z,10.19
2018-11-13T07:14:04.636Z,10.26
2018-11-13T07:18:58.092Z,10.35
2018-11-13T07:23:51.580Z,10.45
2018-11-13T07:28:45.143Z,10.47
2018-11-13T07:33:38.464Z,10.72
2018-11-13T07:38:31.884Z,10.97
2018-11-13T07:43:25.295Z,11.18
2018-11-13T07:48:18.731Z,11.53
2018-11-13T07:53:12.192Z,11.77
2018-11-13T07:58:05.737Z,11.95
2018-11-13T08:03:09.014Z,12.06
2018-11-13T08:08:02.527Z,12.10
2018-11-13T08:12:55.996Z,12.19
2018-11-13T08:17:49.354Z,12.43
2018-11-13T08:22:43.451Z,12.59
2018-11-13T08:27:37.764Z,12.69
2018-11-13T08:32:31.432Z,12.82
2018-11-13T08:37:24.972Z,12.90
2018-11-13T08:42:18.502Z,12.85
2018-11-13T08:47:12.099Z,12.75
2018-11-13T08:52:06.100Z,12.74
2018-11-13T08:56:59.501Z,12.84
2018-11-13T09:01:53.077Z,12.89
2018-11-13T09:06:46.797Z,12.83
2018-11-13T09:11:40.486Z,13.01
2018-11-13T09:16:34.075Z,13.11
2018-11-13T09:21:27.481Z,13.30
2018-11-13T09:26:20.959Z,13.08
2018-11-13T09:31:14.539Z,12.85
2018-11-13T09:36:07.988Z,12.69
2018-11-13T09:41:01.585Z,12.65
2018-11-13T09:45:55.139Z,12.51
2018-11-13T09:50:48.800Z,12.41
2018-11-13T09:55:42.428Z,12.20
2018-11-13T10:00:36.239Z,12.02
2018-11-13T10:05:29.851Z,11.92
2018-11-13T10:10:23.680Z,11.88
2018-11-13T10:15:21.806Z,11.79
2018-11-13T10:20:15.995Z,11.61
2018-11-13T10:25:10.417Z,11.61
2018-11-13T10:30:05.815Z,11.65
2018-11-13T10:34:59.350Z,11.64
2018-11-13T10:39:53.033Z,11.41
2018-11-13T10:44:46.477Z,11.06
2018-11-13T10:49:40.216Z,10.80
2018-11-13T10:54:33.727Z,10.56
2018-11-13T10:59:27.163Z,10.33
2018-11-13T11:04:26.191Z,10.20
2018-11-13T11:09:19.888Z,10.09
2018-11-13T11:14:13.339Z,9.94
2018-11-13T11:19:06.915Z,10.02
2018-11-13T11:24:00.517Z,10.05
2018-11-13T11:28:54.125Z,10.18
2018-11-13T11:33:47.449Z,10.21
2018-11-13T11:38:40.792Z,10.02
2018-11-13T11:43:34.216Z,10.04
2018-11-13T11:48:27.643Z,10.26
2018-11-13T11:53:21.149Z,10.25
2018-11-13T11:58:14.828Z,10.34
2018-11-13T12:03:08.695Z,10.46
2018-11-13T12:08:02.213Z,10.53
2018-11-13T12:12:55.906Z,10.52
2018-11-13T12:17:49.599Z,10.72
2018-11-13T12:22:43.405Z,10.84
2018-11-13T12:27:37.076Z,10.84
2018-11-13T12:32:30.939Z,10.95
2018-11-13T12:37:24.625Z,11.02
2018-11-13T12:42:18.094Z,11.10
2018-11-13T12:47:12.006Z,11.07
2018-11-13T12:52:11.167Z,11.27
2018-11-13T12:57:04.643Z,11.34
2018-11-13T13:01:58.089Z,11.19
2018-11-13T13:06:51.715Z,11.10
2018-11-13T13:11:45.222Z,10.94
2018-11-13T13:16:39.040Z,10.87
2018-11-13T13:21:32.579Z,10.82
2018-11-13T13:26:26.109Z,10.89
2018-11-13T13:31:19.542Z,10.82
2018-11-13T13:36:12.991Z,10.88
2018-11-13T13:41:07.054Z,10.88
2018-11-13T13:46:00.648Z,10.80
2018-11-13T13:50:54.265Z,10.79
2018-11-13T13:55:48.179Z,10.60
2018-11-13T14:00:41.694Z,10.61
2018-11-13T14:05:35.460Z,10.66
2018-11-13T14:10:29.039Z,10.75
2018-11-13T14:15:22.719Z,10.82
2018-11-13T14:20:17.652Z,10.77
2018-11-13T14:25:12.344Z,10.70
2018-11-13T14:30:12.569Z,10.70
2018-11-13T14:35:06.676Z,10.63
2018-11-13T14:40:00.237Z,10.66
2018-11-13T14:44:59.622Z,10.54
2018-11-13T14:49:53.123Z,10.52
2018-11-13T14:54:46.847Z,10.49
2018-11-13T14:59:40.550Z,10.45
2018-11-13T15:04:34.106Z,10.58
2018-11-13T15:09:27.692Z,10.32
2018-11-13T15:14:21.138Z,10.20
2018-11-13T15:19:14.559Z,10.07
2018-11-13T15:24:09.179Z,9.98
2018-11-13T15:29:02.653Z,9.84
2018-11-13T15:33:56.107Z,9.82
2018-11-13T15:38:49.571Z,9.67
2018-11-13T15:43:42.957Z,9.55
2018-11-13T15:48:36.623Z,9.40
2018-11-13T15:53:30.048Z,9.46
2018-11-13T15:58:23.593Z,9.42
2018-11-13T16:03:20.902Z,9.43
2018-11-13T16:08:14.375Z,9.56
2018-11-13T16:13:08.275Z,9.28
2018-11-13T16:18:03.185Z,9.32
2018-11-13T16:22:56.805Z,9.37
2018-11-13T16:27:50.338Z,9.41
2018-11-13T16:32:44.762Z,9.36
2018-11-13T16:37:39.073Z,9.54
2018-11-13T16:42:32.551Z,9.55
2018-11-13T16:47:25.982Z,9.54
2018-11-13T16:52:19.463Z,9.54
2018-11-13T16:57:15.207Z,9.52
2018-11-13T17:02:08.849Z,9.64
2018-11-13T17:07:02.788Z,9.72
2018-11-13T17:11:56.663Z,9.67
2018-11-13T17:16:50.208Z,9.67
2018-11-13T17:21:43.702Z,9.66
2018-11-13T17:26:37.239Z,9.66
2018-11-13T17:31:34.526Z,9.60
2018-11-13T17:36:27.884Z,9.61
2018-11-13T17:41:21.415Z,9.72
2018-11-13T17:46:15.577Z,9.70
2018-11-13T17:51:09.094Z,9.53
2018-11-13T17:56:02.614Z,9.54
2018-11-13T18:00:56.523Z,9.57
2018-11-13T18:05:50.099Z,9.51
2018-11-13T18:10:44.905Z,9.42
2018-11-13T18:15:38.643Z,9.40
2018-11-13T18:20:34.568Z,9.50
2018-11-13T18:25:28.412Z,9.32
2018-11-13T18:30:28.325Z,9.31
2018-11-13T18:35:23.119Z,9.47
2018-11-13T18:40:17.563Z,9.56
2018-11-13T18:45:14.460Z,9.53
2018-11-13T18:50:12.216Z,9.41
2018-11-13T18:55:06.605Z,9.31
2018-11-13T19:00:00.222Z,9.21
2018-11-13T19:04:53.790Z,9.24
2018-11-13T19:09:47.534Z,9.18
2018-11-13T19:14:41.100Z,9.15
2018-11-13T19:19:34.780Z,8.89
2018-11-13T19:24:28.485Z,8.78
2018-11-13T19:29:22.024Z,8.74
2018-11-13T19:34:15.436Z,8.84
2018-11-13T19:39:10.815Z,8.63
2018-11-13T19:44:04.635Z,8.24
2018-11-13T19:48:58.537Z,8.20
2018-11-13T19:53:52.380Z,8.33
2018-11-13T19:58:45.971Z,8.40
2018-11-13T20:03:39.477Z,8.41
2018-11-13T20:08:32.889Z,8.55
2018-11-13T20:13:26.355Z,8.65
2018-11-13T20:18:20.088Z,8.72
2018-11-13T20:23:13.713Z,8.73
2018-11-13T20:28:07.497Z,8.77
2018-11-13T20:33:01.081Z,8.81
2018-11-13T20:37:55.451Z,8.82
2018-11-13T20:42:50.251Z,8.88
2018-11-13T20:47:43.736Z,8.89
2018-11-13T20:52:37.476Z,8.64
2018-11-13T20:57:31.043Z,8.60
2018-11-13T21:02:24.525Z,8.51
2018-11-13T21:07:18.155Z,8.45
2018-11-13T21:12:11.514Z,8.56
2018-11-13T21:17:05.521Z,8.54
2018-11-13T21:21:58.644Z,8.36
2018-11-13T21:26:52.279Z,8.26
2018-11-13T21:31:47.232Z,8.40
2018-11-13T21:36:43.515Z,8.37
2018-11-13T21:41:38.335Z,8.37
2018-11-13T21:46:31.803Z,8.29
2018-11-13T21:51:25.421Z,8.43
2018-11-13T21:56:18.994Z,8.40
2018-11-13T22:01:14.665Z,8.35
2018-11-13T22:06:08.112Z,8.49
2018-11-13T22:11:01.891Z,8.68
2018-11-13T22:15:55.432Z,8.61
2018-11-13T22:20:48.894Z,8.62
2018-11-13T22:25:42.290Z,8.76
2018-11-13T22:30:35.651Z,8.91
2018-11-13T22:35:29.154Z,9.06
2018-11-13T22:40:23.853Z,9.17
2018-11-13T22:45:18.861Z,9.19
2018-11-13T22:50:21.762Z,9.10
2018-11-13T22:55:15.673Z,9.18
2018-11-13T23:00:16.592Z,8.95
2018-11-13T23:05:09.587Z,8.66
2018-11-13T23:10:03.071Z,8.57
2018-11-13T23:14:56.433Z,8.84
2018-11-13T23:19:49.937Z,8.92
2018-11-13T23:24:43.569Z,8.75
2018-11-13T23:29:37.058Z,8.73
2018-11-13T23:34:30.514Z,8.86
2018-11-13T23:39:23.924Z,8.84
2018-11-13T23:44:17.382Z,8.87
2018-11-13T23:49:11.832Z,8.91
2018-11-13T23:54:05.745Z,8.83
2018-11-13T23:58:59.347Z,8.79
